Terminal Aerodrome Forecast
Issued by NWS Charleston, WV

Current Version | Previous Version | Graphics & Text | Print | Product List | Glossary On
Versions: 1 2 3 4 5 6 7 8 9 10 11 12 13 14 15 16 17 18 19 20 21 22 23 24
000
FTUS41 KRLX 230800 AAA
TAFHTS
TAF AMD
KHTS 230848Z 2309/2406 22004KT 6SM BR SCT050
     FM231200 23005KT 6SM HZ SCT040
     FM231600 24007KT P6SM VCTS BKN040CB BKN100
     FM232000 28007KT 5SM TSRA BR BKN030CB
     FM232300 30005KT 4SM TSRA BR BKN028CB
     FM240300 34004KT 5SM BR BKN020=

USA.gov is the U.S. government's official web portal to all federal, state and local government web resources and services.